sensor_id;sensor_type;location;lat;lon;timestamp;P1;durP1;ratioP1;P2;durP2;ratioP2
32094;SDS011;18608;53.688;10.748;2023-07-20T00:00:32;15.90;;;6.37;;
32094;SDS011;18608;53.688;10.748;2023-07-20T00:03:14;14.23;;;7.30;;
32094;SDS011;18608;53.688;10.748;2023-07-20T00:05:44;11.63;;;6.47;;
32094;SDS011;18608;53.688;10.748;2023-07-20T00:08:10;9.23;;;6.10;;
32094;SDS011;18608;53.688;10.748;2023-07-20T00:10:36;10.60;;;6.20;;
32094;SDS011;18608;53.688;10.748;2023-07-20T00:13:02;7.30;;;5.93;;
32094;SDS011;18608;53.688;10.748;2023-07-20T00:15:28;8.43;;;6.10;;
32094;SDS011;18608;53.688;10.748;2023-07-20T00:17:54;10.40;;;7.00;;
32094;SDS011;18608;53.688;10.748;2023-07-20T00:20:20;9.20;;;8.10;;
32094;SDS011;18608;53.688;10.748;2023-07-20T00:22:46;9.73;;;7.23;;
32094;SDS011;18608;53.688;10.748;2023-07-20T00:25:12;19.23;;;6.73;;
32094;SDS011;18608;53.688;10.748;2023-07-20T00:27:38;12.83;;;6.53;;
32094;SDS011;18608;53.688;10.748;2023-07-20T00:30:04;7.70;;;5.70;;
32094;SDS011;18608;53.688;10.748;2023-07-20T00:32:30;10.37;;;6.70;;
32094;SDS011;18608;53.688;10.748;2023-07-20T00:34:56;10.40;;;5.80;;
32094;SDS011;18608;53.688;10.748;2023-07-20T00:37:22;11.20;;;6.53;;
32094;SDS011;18608;53.688;10.748;2023-07-20T00:39:48;9.13;;;5.80;;
32094;SDS011;18608;53.688;10.748;2023-07-20T00:42:14;13.63;;;5.47;;
32094;SDS011;18608;53.688;10.748;2023-07-20T00:44:40;7.80;;;5.37;;
32094;SDS011;18608;53.688;10.748;2023-07-20T00:47:06;7.37;;;6.20;;
32094;SDS011;18608;53.688;10.748;2023-07-20T00:49:32;16.50;;;6.50;;
32094;SDS011;18608;53.688;10.748;2023-07-20T00:51:59;7.17;;;4.83;;
32094;SDS011;18608;53.688;10.748;2023-07-20T00:54:26;11.20;;;5.03;;
32094;SDS011;18608;53.688;10.748;2023-07-20T00:56:53;6.67;;;5.60;;
32094;SDS011;18608;53.688;10.748;2023-07-20T00:59:19;12.10;;;5.80;;
32094;SDS011;18608;53.688;10.748;2023-07-20T01:01:45;18.07;;;5.10;;
32094;SDS011;18608;53.688;10.748;2023-07-20T01:04:12;7.30;;;4.83;;
32094;SDS011;18608;53.688;10.748;2023-07-20T01:14:15;8.67;;;4.40;;
32094;SDS011;18608;53.688;10.748;2023-07-20T01:16:41;11.43;;;5.90;;
32094;SDS011;18608;53.688;10.748;2023-07-20T01:19:07;7.17;;;4.60;;
32094;SDS011;18608;53.688;10.748;2023-07-20T01:21:36;5.63;;;4.60;;
32094;SDS011;18608;53.688;10.748;2023-07-20T01:24:31;6.43;;;4.20;;
32094;SDS011;18608;53.688;10.748;2023-07-20T01:30:03;10.07;;;4.83;;
32094;SDS011;18608;53.688;10.748;2023-07-20T01:32:32;6.93;;;4.07;;
32094;SDS011;18608;53.688;10.748;2023-07-20T01:34:59;4.87;;;4.33;;
32094;SDS011;18608;53.688;10.748;2023-07-20T01:37:27;4.70;;;4.33;;
32094;SDS011;18608;53.688;10.748;2023-07-20T01:39:57;12.00;;;5.63;;
32094;SDS011;18608;53.688;10.748;2023-07-20T01:42:35;7.23;;;5.27;;
32094;SDS011;18608;53.688;10.748;2023-07-20T01:45:01;5.80;;;5.23;;
32094;SDS011;18608;53.688;10.748;2023-07-20T01:47:27;8.50;;;5.30;;
32094;SDS011;18608;53.688;10.748;2023-07-20T01:49:54;16.63;;;5.33;;
32094;SDS011;18608;53.688;10.748;2023-07-20T01:52:20;8.00;;;5.37;;
32094;SDS011;18608;53.688;10.748;2023-07-20T01:54:46;9.20;;;4.87;;
32094;SDS011;18608;53.688;10.748;2023-07-20T01:57:12;13.30;;;6.27;;
32094;SDS011;18608;53.688;10.748;2023-07-20T01:59:38;15.23;;;6.00;;
32094;SDS011;18608;53.688;10.748;2023-07-20T02:02:04;11.57;;;5.60;;
32094;SDS011;18608;53.688;10.748;2023-07-20T02:04:30;19.17;;;6.77;;
32094;SDS011;18608;53.688;10.748;2023-07-20T02:06:56;9.80;;;4.90;;
32094;SDS011;18608;53.688;10.748;2023-07-20T02:09:22;15.00;;;6.80;;
32094;SDS011;18608;53.688;10.748;2023-07-20T02:11:48;14.53;;;6.80;;
32094;SDS011;18608;53.688;10.748;2023-07-20T02:14:15;13.43;;;6.00;;
32094;SDS011;18608;53.688;10.748;2023-07-20T02:16:41;26.13;;;7.57;;
32094;SDS011;18608;53.688;10.748;2023-07-20T02:19:07;11.17;;;6.77;;
32094;SDS011;18608;53.688;10.748;2023-07-20T02:21:33;10.67;;;7.03;;
32094;SDS011;18608;53.688;10.748;2023-07-20T02:23:59;12.03;;;8.17;;
32094;SDS011;18608;53.688;10.748;2023-07-20T02:26:25;13.40;;;6.50;;
32094;SDS011;18608;53.688;10.748;2023-07-20T02:28:51;17.07;;;6.97;;
32094;SDS011;18608;53.688;10.748;2023-07-20T02:31:17;10.87;;;7.80;;
32094;SDS011;18608;53.688;10.748;2023-07-20T02:33:43;10.60;;;6.37;;
32094;SDS011;18608;53.688;10.748;2023-07-20T02:36:09;19.33;;;7.47;;
32094;SDS011;18608;53.688;10.748;2023-07-20T02:38:35;13.37;;;7.80;;
32094;SDS011;18608;53.688;10.748;2023-07-20T02:41:01;15.00;;;7.57;;
32094;SDS011;18608;53.688;10.748;2023-07-20T02:43:27;8.33;;;6.17;;
32094;SDS011;18608;53.688;10.748;2023-07-20T02:45:53;10.77;;;7.20;;
32094;SDS011;18608;53.688;10.748;2023-07-20T02:48:19;8.53;;;6.50;;
32094;SDS011;18608;53.688;10.748;2023-07-20T02:50:45;9.57;;;7.40;;
32094;SDS011;18608;53.688;10.748;2023-07-20T02:53:11;14.30;;;6.43;;
32094;SDS011;18608;53.688;10.748;2023-07-20T02:55:37;15.90;;;7.80;;
32094;SDS011;18608;53.688;10.748;2023-07-20T02:58:03;19.37;;;8.20;;
32094;SDS011;18608;53.688;10.748;2023-07-20T03:00:29;29.23;;;9.10;;
32094;SDS011;18608;53.688;10.748;2023-07-20T03:02:55;13.17;;;8.23;;
32094;SDS011;18608;53.688;10.748;2023-07-20T03:05:22;13.97;;;8.30;;
32094;SDS011;18608;53.688;10.748;2023-07-20T03:07:50;13.90;;;7.20;;
32094;SDS011;18608;53.688;10.748;2023-07-20T03:10:16;12.80;;;7.50;;
32094;SDS011;18608;53.688;10.748;2023-07-20T03:12:42;14.60;;;7.27;;
32094;SDS011;18608;53.688;10.748;2023-07-20T03:15:08;11.33;;;7.70;;
32094;SDS011;18608;53.688;10.748;2023-07-20T03:17:34;14.47;;;7.00;;
32094;SDS011;18608;53.688;10.748;2023-07-20T03:20:00;13.70;;;9.23;;
32094;SDS011;18608;53.688;10.748;2023-07-20T03:22:27;27.77;;;8.53;;
32094;SDS011;18608;53.688;10.748;2023-07-20T03:24:53;21.90;;;8.83;;
32094;SDS011;18608;53.688;10.748;2023-07-20T03:27:19;20.73;;;9.90;;
32094;SDS011;18608;53.688;10.748;2023-07-20T03:29:46;18.87;;;9.07;;
32094;SDS011;18608;53.688;10.748;2023-07-20T03:32:12;16.97;;;7.57;;
32094;SDS011;18608;53.688;10.748;2023-07-20T03:34:38;15.60;;;8.47;;
32094;SDS011;18608;53.688;10.748;2023-07-20T03:37:04;23.50;;;8.70;;
32094;SDS011;18608;53.688;10.748;2023-07-20T03:39:30;18.20;;;9.83;;
32094;SDS011;18608;53.688;10.748;2023-07-20T03:41:57;18.10;;;9.10;;
32094;SDS011;18608;53.688;10.748;2023-07-20T03:44:24;16.67;;;9.53;;
32094;SDS011;18608;53.688;10.748;2023-07-20T03:46:50;16.07;;;10.00;;
32094;SDS011;18608;53.688;10.748;2023-07-20T03:49:16;15.17;;;8.73;;
32094;SDS011;18608;53.688;10.748;2023-07-20T03:51:43;16.60;;;10.83;;
32094;SDS011;18608;53.688;10.748;2023-07-20T03:54:09;21.13;;;10.90;;
32094;SDS011;18608;53.688;10.748;2023-07-20T03:56:35;16.20;;;9.50;;
32094;SDS011;18608;53.688;10.748;2023-07-20T03:59:01;21.97;;;10.63;;
32094;SDS011;18608;53.688;10.748;2023-07-20T04:01:27;18.60;;;9.50;;
32094;SDS011;18608;53.688;10.748;2023-07-20T04:03:53;15.90;;;9.90;;
32094;SDS011;18608;53.688;10.748;2023-07-20T04:06:19;18.17;;;9.87;;
32094;SDS011;18608;53.688;10.748;2023-07-20T04:08:45;18.47;;;9.30;;
32094;SDS011;18608;53.688;10.748;2023-07-20T04:11:12;20.07;;;9.67;;
32094;SDS011;18608;53.688;10.748;2023-07-20T04:13:41;17.60;;;10.23;;
32094;SDS011;18608;53.688;10.748;2023-07-20T04:16:07;17.23;;;10.20;;
32094;SDS011;18608;53.688;10.748;2023-07-20T04:18:33;16.70;;;9.87;;
32094;SDS011;18608;53.688;10.748;2023-07-20T04:20:59;16.90;;;10.47;;
32094;SDS011;18608;53.688;10.748;2023-07-20T04:23:25;16.03;;;9.17;;
32094;SDS011;18608;53.688;10.748;2023-07-20T04:25:52;20.83;;;9.83;;
32094;SDS011;18608;53.688;10.748;2023-07-20T04:28:18;14.87;;;9.53;;
32094;SDS011;18608;53.688;10.748;2023-07-20T04:30:44;12.60;;;8.43;;
32094;SDS011;18608;53.688;10.748;2023-07-20T04:33:10;14.27;;;9.63;;
32094;SDS011;18608;53.688;10.748;2023-07-20T04:38:16;16.73;;;8.90;;
32094;SDS011;18608;53.688;10.748;2023-07-20T04:40:43;16.80;;;7.80;;
32094;SDS011;18608;53.688;10.748;2023-07-20T04:43:13;19.80;;;9.30;;
32094;SDS011;18608;53.688;10.748;2023-07-20T04:45:39;16.77;;;9.63;;
32094;SDS011;18608;53.688;10.748;2023-07-20T04:48:10;13.80;;;8.40;;
32094;SDS011;18608;53.688;10.748;2023-07-20T04:50:37;15.83;;;8.60;;
32094;SDS011;18608;53.688;10.748;2023-07-20T04:53:03;14.60;;;8.70;;
32094;SDS011;18608;53.688;10.748;2023-07-20T04:55:29;15.33;;;8.10;;
32094;SDS011;18608;53.688;10.748;2023-07-20T04:57:57;14.50;;;8.97;;
32094;SDS011;18608;53.688;10.748;2023-07-20T05:00:23;18.20;;;9.27;;
32094;SDS011;18608;53.688;10.748;2023-07-20T05:02:49;12.63;;;8.80;;
32094;SDS011;18608;53.688;10.748;2023-07-20T05:05:15;11.17;;;8.37;;
32094;SDS011;18608;53.688;10.748;2023-07-20T05:07:41;11.70;;;8.43;;
32094;SDS011;18608;53.688;10.748;2023-07-20T05:10:07;16.03;;;8.50;;
32094;SDS011;18608;53.688;10.748;2023-07-20T05:12:33;15.83;;;9.30;;
32094;SDS011;18608;53.688;10.748;2023-07-20T05:14:59;13.57;;;8.27;;
32094;SDS011;18608;53.688;10.748;2023-07-20T05:17:25;18.33;;;9.30;;
32094;SDS011;18608;53.688;10.748;2023-07-20T05:19:51;17.13;;;10.13;;
32094;SDS011;18608;53.688;10.748;2023-07-20T05:22:17;11.10;;;8.87;;
32094;SDS011;18608;53.688;10.748;2023-07-20T05:24:43;18.50;;;8.10;;
32094;SDS011;18608;53.688;10.748;2023-07-20T05:27:09;15.30;;;9.13;;
32094;SDS011;18608;53.688;10.748;2023-07-20T05:29:35;13.17;;;7.53;;
32094;SDS011;18608;53.688;10.748;2023-07-20T05:32:01;13.00;;;7.67;;
32094;SDS011;18608;53.688;10.748;2023-07-20T05:34:28;11.60;;;7.10;;
32094;SDS011;18608;53.688;10.748;2023-07-20T05:36:54;9.93;;;6.40;;
32094;SDS011;18608;53.688;10.748;2023-07-20T05:39:20;12.40;;;6.27;;
32094;SDS011;18608;53.688;10.748;2023-07-20T05:41:46;7.20;;;5.50;;
32094;SDS011;18608;53.688;10.748;2023-07-20T05:44:12;10.83;;;6.30;;
32094;SDS011;18608;53.688;10.748;2023-07-20T05:46:38;6.13;;;5.17;;
32094;SDS011;18608;53.688;10.748;2023-07-20T05:49:04;6.00;;;5.40;;
32094;SDS011;18608;53.688;10.748;2023-07-20T05:51:30;6.30;;;4.70;;
32094;SDS011;18608;53.688;10.748;2023-07-20T05:53:56;7.80;;;5.30;;
32094;SDS011;18608;53.688;10.748;2023-07-20T05:56:22;6.17;;;5.57;;
32094;SDS011;18608;53.688;10.748;2023-07-20T05:58:48;5.50;;;4.90;;
32094;SDS011;18608;53.688;10.748;2023-07-20T06:01:15;6.30;;;4.80;;
32094;SDS011;18608;53.688;10.748;2023-07-20T06:03:43;11.13;;;5.43;;
32094;SDS011;18608;53.688;10.748;2023-07-20T06:06:09;5.70;;;4.00;;
32094;SDS011;18608;53.688;10.748;2023-07-20T06:08:37;5.60;;;3.93;;
32094;SDS011;18608;53.688;10.748;2023-07-20T06:11:03;12.17;;;3.70;;
32094;SDS011;18608;53.688;10.748;2023-07-20T06:13:29;4.23;;;3.87;;
32094;SDS011;18608;53.688;10.748;2023-07-20T06:15:55;4.10;;;3.70;;
32094;SDS011;18608;53.688;10.748;2023-07-20T06:18:22;3.93;;;3.50;;
32094;SDS011;18608;53.688;10.748;2023-07-20T06:20:49;3.87;;;3.57;;
32094;SDS011;18608;53.688;10.748;2023-07-20T06:23:18;3.50;;;3.00;;
32094;SDS011;18608;53.688;10.748;2023-07-20T06:25:44;3.90;;;3.60;;
32094;SDS011;18608;53.688;10.748;2023-07-20T06:28:11;3.60;;;3.30;;
32094;SDS011;18608;53.688;10.748;2023-07-20T06:30:37;3.90;;;3.40;;
32094;SDS011;18608;53.688;10.748;2023-07-20T06:33:03;6.73;;;4.13;;
32094;SDS011;18608;53.688;10.748;2023-07-20T06:35:29;4.50;;;3.50;;
32094;SDS011;18608;53.688;10.748;2023-07-20T06:37:55;6.87;;;3.30;;
32094;SDS011;18608;53.688;10.748;2023-07-20T06:40:21;3.77;;;2.60;;
32094;SDS011;18608;53.688;10.748;2023-07-20T06:42:47;4.83;;;2.50;;
32094;SDS011;18608;53.688;10.748;2023-07-20T06:45:13;5.00;;;3.20;;
32094;SDS011;18608;53.688;10.748;2023-07-20T06:47:39;2.90;;;2.70;;
32094;SDS011;18608;53.688;10.748;2023-07-20T06:50:08;2.10;;;2.00;;
32094;SDS011;18608;53.688;10.748;2023-07-20T06:52:34;3.33;;;2.40;;
32094;SDS011;18608;53.688;10.748;2023-07-20T06:55:01;2.67;;;2.57;;
32094;SDS011;18608;53.688;10.748;2023-07-20T06:57:27;2.93;;;2.73;;
32094;SDS011;18608;53.688;10.748;2023-07-20T06:59:53;2.37;;;2.13;;
32094;SDS011;18608;53.688;10.748;2023-07-20T07:02:19;3.10;;;2.80;;
32094;SDS011;18608;53.688;10.748;2023-07-20T07:04:45;5.73;;;2.23;;
32094;SDS011;18608;53.688;10.748;2023-07-20T07:07:13;4.77;;;3.13;;
32094;SDS011;18608;53.688;10.748;2023-07-20T07:09:40;2.90;;;2.70;;
32094;SDS011;18608;53.688;10.748;2023-07-20T07:12:06;4.20;;;3.00;;
32094;SDS011;18608;53.688;10.748;2023-07-20T07:14:32;7.17;;;2.73;;
32094;SDS011;18608;53.688;10.748;2023-07-20T07:16:58;7.77;;;3.67;;
32094;SDS011;18608;53.688;10.748;2023-07-20T07:19:24;3.13;;;2.80;;
32094;SDS011;18608;53.688;10.748;2023-07-20T07:21:50;4.50;;;2.97;;
32094;SDS011;18608;53.688;10.748;2023-07-20T07:24:16;6.67;;;2.13;;
32094;SDS011;18608;53.688;10.748;2023-07-20T07:26:42;2.40;;;2.20;;
32094;SDS011;18608;53.688;10.748;2023-07-20T07:29:09;3.30;;;1.90;;
32094;SDS011;18608;53.688;10.748;2023-07-20T07:31:35;2.60;;;2.30;;
32094;SDS011;18608;53.688;10.748;2023-07-20T07:34:01;2.80;;;1.80;;
32094;SDS011;18608;53.688;10.748;2023-07-20T07:36:28;4.50;;;2.37;;
32094;SDS011;18608;53.688;10.748;2023-07-20T07:38:54;1.70;;;1.60;;
32094;SDS011;18608;53.688;10.748;2023-07-20T07:41:20;1.67;;;1.50;;
32094;SDS011;18608;53.688;10.748;2023-07-20T07:43:46;2.80;;;1.70;;
32094;SDS011;18608;53.688;10.748;2023-07-20T07:46:12;11.03;;;1.77;;
32094;SDS011;18608;53.688;10.748;2023-07-20T07:48:39;1.70;;;1.60;;
32094;SDS011;18608;53.688;10.748;2023-07-20T07:51:05;1.97;;;1.87;;
32094;SDS011;18608;53.688;10.748;2023-07-20T07:53:31;1.50;;;1.40;;
32094;SDS011;18608;53.688;10.748;2023-07-20T07:55:57;1.90;;;1.63;;
32094;SDS011;18608;53.688;10.748;2023-07-20T07:58:23;2.10;;;2.00;;
32094;SDS011;18608;53.688;10.748;2023-07-20T08:00:49;3.57;;;1.30;;
32094;SDS011;18608;53.688;10.748;2023-07-20T08:03:15;3.53;;;1.77;;
32094;SDS011;18608;53.688;10.748;2023-07-20T08:05:42;3.70;;;2.00;;
32094;SDS011;18608;53.688;10.748;2023-07-20T08:08:08;1.73;;;1.53;;
32094;SDS011;18608;53.688;10.748;2023-07-20T08:10:34;2.80;;;1.90;;
32094;SDS011;18608;53.688;10.748;2023-07-20T08:13:00;2.93;;;1.70;;
32094;SDS011;18608;53.688;10.748;2023-07-20T08:15:26;4.57;;;1.73;;
32094;SDS011;18608;53.688;10.748;2023-07-20T08:17:52;2.63;;;1.80;;
32094;SDS011;18608;53.688;10.748;2023-07-20T08:20:18;1.80;;;1.70;;
32094;SDS011;18608;53.688;10.748;2023-07-20T08:22:48;2.50;;;1.43;;
32094;SDS011;18608;53.688;10.748;2023-07-20T08:25:14;10.63;;;1.43;;
32094;SDS011;18608;53.688;10.748;2023-07-20T08:27:40;2.20;;;1.93;;
32094;SDS011;18608;53.688;10.748;2023-07-20T08:30:07;4.63;;;1.30;;
32094;SDS011;18608;53.688;10.748;2023-07-20T08:32:33;1.67;;;1.20;;
32094;SDS011;18608;53.688;10.748;2023-07-20T08:34:59;2.83;;;1.37;;
32094;SDS011;18608;53.688;10.748;2023-07-20T08:37:25;2.70;;;1.40;;
32094;SDS011;18608;53.688;10.748;2023-07-20T08:39:51;2.20;;;1.30;;
32094;SDS011;18608;53.688;10.748;2023-07-20T08:42:17;2.80;;;1.47;;
32094;SDS011;18608;53.688;10.748;2023-07-20T08:44:43;2.33;;;1.30;;
32094;SDS011;18608;53.688;10.748;2023-07-20T08:47:10;4.03;;;1.50;;
32094;SDS011;18608;53.688;10.748;2023-07-20T08:49:38;5.03;;;1.70;;
32094;SDS011;18608;53.688;10.748;2023-07-20T08:52:05;31.37;;;2.33;;
32094;SDS011;18608;53.688;10.748;2023-07-20T08:54:31;2.40;;;1.47;;
32094;SDS011;18608;53.688;10.748;2023-07-20T08:57:04;2.10;;;1.30;;
32094;SDS011;18608;53.688;10.748;2023-07-20T08:59:30;5.03;;;1.40;;
32094;SDS011;18608;53.688;10.748;2023-07-20T09:01:58;3.03;;;1.80;;
32094;SDS011;18608;53.688;10.748;2023-07-20T09:04:24;2.90;;;1.73;;
32094;SDS011;18608;53.688;10.748;2023-07-20T09:06:50;1.10;;;1.10;;
32094;SDS011;18608;53.688;10.748;2023-07-20T09:09:17;3.80;;;1.47;;
32094;SDS011;18608;53.688;10.748;2023-07-20T09:11:43;5.33;;;1.90;;
32094;SDS011;18608;53.688;10.748;2023-07-20T09:14:12;1.87;;;1.50;;
32094;SDS011;18608;53.688;10.748;2023-07-20T09:16:52;1.80;;;1.40;;
32094;SDS011;18608;53.688;10.748;2023-07-20T09:19:19;1.30;;;1.27;;
32094;SDS011;18608;53.688;10.748;2023-07-20T09:21:46;3.03;;;1.77;;
32094;SDS011;18608;53.688;10.748;2023-07-20T09:24:13;1.70;;;1.60;;
32094;SDS011;18608;53.688;10.748;2023-07-20T09:26:41;4.87;;;1.67;;
32094;SDS011;18608;53.688;10.748;2023-07-20T09:29:10;3.00;;;1.63;;
32094;SDS011;18608;53.688;10.748;2023-07-20T09:31:37;2.33;;;2.10;;
32094;SDS011;18608;53.688;10.748;2023-07-20T09:34:04;3.30;;;1.97;;
32094;SDS011;18608;53.688;10.748;2023-07-20T09:36:32;5.47;;;1.73;;
32094;SDS011;18608;53.688;10.748;2023-07-20T09:39:00;3.70;;;1.73;;
32094;SDS011;18608;53.688;10.748;2023-07-20T09:41:26;3.63;;;2.20;;
32094;SDS011;18608;53.688;10.748;2023-07-20T09:43:52;5.43;;;2.53;;
32094;SDS011;18608;53.688;10.748;2023-07-20T09:46:18;1.87;;;1.50;;
32094;SDS011;18608;53.688;10.748;2023-07-20T09:48:51;2.30;;;2.00;;
32094;SDS011;18608;53.688;10.748;2023-07-20T09:51:19;9.43;;;2.13;;
32094;SDS011;18608;53.688;10.748;2023-07-20T09:53:47;5.80;;;2.10;;
32094;SDS011;18608;53.688;10.748;2023-07-20T09:56:14;2.73;;;1.13;;
32094;SDS011;18608;53.688;10.748;2023-07-20T09:58:42;4.00;;;1.60;;
32094;SDS011;18608;53.688;10.748;2023-07-20T10:01:10;1.87;;;1.60;;
32094;SDS011;18608;53.688;10.748;2023-07-20T10:03:39;2.63;;;1.40;;
32094;SDS011;18608;53.688;10.748;2023-07-20T10:06:08;2.97;;;1.40;;
32094;SDS011;18608;53.688;10.748;2023-07-20T10:08:41;5.53;;;2.07;;
32094;SDS011;18608;53.688;10.748;2023-07-20T10:11:08;8.40;;;1.70;;
32094;SDS011;18608;53.688;10.748;2023-07-20T10:13:36;2.37;;;1.53;;
32094;SDS011;18608;53.688;10.748;2023-07-20T10:16:10;5.57;;;1.60;;
32094;SDS011;18608;53.688;10.748;2023-07-20T10:18:50;4.00;;;1.80;;
32094;SDS011;18608;53.688;10.748;2023-07-20T10:21:24;2.53;;;1.73;;
32094;SDS011;18608;53.688;10.748;2023-07-20T10:23:51;9.53;;;1.43;;
32094;SDS011;18608;53.688;10.748;2023-07-20T10:26:17;4.83;;;1.97;;
32094;SDS011;18608;53.688;10.748;2023-07-20T10:28:43;5.00;;;1.73;;
32094;SDS011;18608;53.688;10.748;2023-07-20T10:31:09;6.90;;;1.77;;
32094;SDS011;18608;53.688;10.748;2023-07-20T10:33:37;4.83;;;2.07;;
32094;SDS011;18608;53.688;10.748;2023-07-20T10:36:04;1.30;;;1.20;;
32094;SDS011;18608;53.688;10.748;2023-07-20T10:38:40;2.47;;;1.43;;
32094;SDS011;18608;53.688;10.748;2023-07-20T10:43:43;5.53;;;2.40;;
32094;SDS011;18608;53.688;10.748;2023-07-20T10:46:13;54.83;;;2.53;;
32094;SDS011;18608;53.688;10.748;2023-07-20T10:51:27;6.50;;;1.07;;
32094;SDS011;18608;53.688;10.748;2023-07-20T10:53:56;3.73;;;1.10;;
32094;SDS011;18608;53.688;10.748;2023-07-20T10:56:25;2.60;;;1.17;;
32094;SDS011;18608;53.688;10.748;2023-07-20T10:58:57;1.90;;;0.97;;
32094;SDS011;18608;53.688;10.748;2023-07-20T11:01:29;1.10;;;0.80;;
32094;SDS011;18608;53.688;10.748;2023-07-20T11:03:58;3.30;;;0.87;;
32094;SDS011;18608;53.688;10.748;2023-07-20T11:09:10;4.60;;;1.50;;
32094;SDS011;18608;53.688;10.748;2023-07-20T11:11:40;2.20;;;1.10;;
32094;SDS011;18608;53.688;10.748;2023-07-20T11:14:08;2.10;;;0.80;;
32094;SDS011;18608;53.688;10.748;2023-07-20T11:19:02;2.60;;;1.20;;
32094;SDS011;18608;53.688;10.748;2023-07-20T11:21:30;4.30;;;0.90;;
32094;SDS011;18608;53.688;10.748;2023-07-20T11:24:05;7.70;;;1.30;;
32094;SDS011;18608;53.688;10.748;2023-07-20T11:26:39;5.00;;;1.20;;
32094;SDS011;18608;53.688;10.748;2023-07-20T11:29:05;1.93;;;1.13;;
32094;SDS011;18608;53.688;10.748;2023-07-20T11:31:34;7.33;;;1.73;;
32094;SDS011;18608;53.688;10.748;2023-07-20T11:34:00;1.00;;;0.80;;
32094;SDS011;18608;53.688;10.748;2023-07-20T11:36:26;8.97;;;1.30;;
32094;SDS011;18608;53.688;10.748;2023-07-20T11:38:53;8.63;;;1.20;;
32094;SDS011;18608;53.688;10.748;2023-07-20T11:41:19;2.73;;;1.00;;
32094;SDS011;18608;53.688;10.748;2023-07-20T11:43:46;0.70;;;0.60;;
32094;SDS011;18608;53.688;10.748;2023-07-20T11:46:12;3.00;;;1.50;;
32094;SDS011;18608;53.688;10.748;2023-07-20T11:48:38;2.70;;;1.10;;
32094;SDS011;18608;53.688;10.748;2023-07-20T11:51:05;2.17;;;1.67;;
32094;SDS011;18608;53.688;10.748;2023-07-20T11:53:31;2.27;;;2.17;;
32094;SDS011;18608;53.688;10.748;2023-07-20T11:56:00;4.20;;;2.97;;
32094;SDS011;18608;53.688;10.748;2023-07-20T11:58:27;3.27;;;2.97;;
32094;SDS011;18608;53.688;10.748;2023-07-20T12:00:53;3.47;;;3.00;;
32094;SDS011;18608;53.688;10.748;2023-07-20T12:03:20;3.00;;;2.30;;
32094;SDS011;18608;53.688;10.748;2023-07-20T12:05:46;3.07;;;2.77;;
32094;SDS011;18608;53.688;10.748;2023-07-20T12:08:14;2.73;;;2.63;;
32094;SDS011;18608;53.688;10.748;2023-07-20T12:10:41;2.60;;;2.50;;
32094;SDS011;18608;53.688;10.748;2023-07-20T12:13:09;2.40;;;2.23;;
32094;SDS011;18608;53.688;10.748;2023-07-20T12:15:36;2.33;;;2.23;;
32094;SDS011;18608;53.688;10.748;2023-07-20T12:18:02;3.17;;;1.83;;
32094;SDS011;18608;53.688;10.748;2023-07-20T12:20:29;1.87;;;1.60;;
32094;SDS011;18608;53.688;10.748;2023-07-20T12:23:00;3.13;;;1.80;;
32094;SDS011;18608;53.688;10.748;2023-07-20T12:25:37;4.17;;;1.90;;
32094;SDS011;18608;53.688;10.748;2023-07-20T12:28:04;1.27;;;1.27;;
32094;SDS011;18608;53.688;10.748;2023-07-20T12:30:31;1.60;;;1.50;;
32094;SDS011;18608;53.688;10.748;2023-07-20T12:32:58;5.23;;;1.80;;
32094;SDS011;18608;53.688;10.748;2023-07-20T12:35:24;1.10;;;1.10;;
32094;SDS011;18608;53.688;10.748;2023-07-20T12:37:50;4.30;;;1.53;;
32094;SDS011;18608;53.688;10.748;2023-07-20T12:40:17;1.50;;;1.40;;
32094;SDS011;18608;53.688;10.748;2023-07-20T12:42:43;4.57;;;1.40;;
32094;SDS011;18608;53.688;10.748;2023-07-20T12:45:10;9.47;;;1.90;;
32094;SDS011;18608;53.688;10.748;2023-07-20T12:47:36;3.13;;;1.20;;
32094;SDS011;18608;53.688;10.748;2023-07-20T12:50:02;2.13;;;1.50;;
32094;SDS011;18608;53.688;10.748;2023-07-20T12:52:31;7.23;;;1.90;;
32094;SDS011;18608;53.688;10.748;2023-07-20T12:54:57;2.43;;;0.97;;
32094;SDS011;18608;53.688;10.748;2023-07-20T12:57:23;2.43;;;1.13;;
32094;SDS011;18608;53.688;10.748;2023-07-20T12:59:49;1.00;;;0.90;;
32094;SDS011;18608;53.688;10.748;2023-07-20T13:02:15;2.73;;;1.00;;
32094;SDS011;18608;53.688;10.748;2023-07-20T13:04:42;1.07;;;0.93;;
32094;SDS011;18608;53.688;10.748;2023-07-20T13:07:09;3.53;;;1.30;;
32094;SDS011;18608;53.688;10.748;2023-07-20T13:09:36;0.87;;;0.87;;
32094;SDS011;18608;53.688;10.748;2023-07-20T13:12:02;6.03;;;2.13;;
32094;SDS011;18608;53.688;10.748;2023-07-20T13:14:28;4.63;;;1.10;;
32094;SDS011;18608;53.688;10.748;2023-07-20T13:16:57;2.60;;;1.10;;
32094;SDS011;18608;53.688;10.748;2023-07-20T13:19:23;3.03;;;1.00;;
32094;SDS011;18608;53.688;10.748;2023-07-20T13:21:49;2.03;;;1.20;;
32094;SDS011;18608;53.688;10.748;2023-07-20T13:24:16;2.77;;;1.40;;
32094;SDS011;18608;53.688;10.748;2023-07-20T13:26:42;3.47;;;1.40;;
32094;SDS011;18608;53.688;10.748;2023-07-20T13:29:08;2.63;;;1.07;;
32094;SDS011;18608;53.688;10.748;2023-07-20T13:31:34;2.70;;;1.10;;
32094;SDS011;18608;53.688;10.748;2023-07-20T13:34:00;5.80;;;1.93;;
32094;SDS011;18608;53.688;10.748;2023-07-20T13:36:26;9.07;;;1.23;;
32094;SDS011;18608;53.688;10.748;2023-07-20T13:38:52;4.67;;;1.30;;
32094;SDS011;18608;53.688;10.748;2023-07-20T13:41:18;4.97;;;1.10;;
32094;SDS011;18608;53.688;10.748;2023-07-20T13:43:44;3.70;;;1.30;;
32094;SDS011;18608;53.688;10.748;2023-07-20T13:46:11;4.13;;;1.10;;
32094;SDS011;18608;53.688;10.748;2023-07-20T13:48:37;3.80;;;1.60;;
32094;SDS011;18608;53.688;10.748;2023-07-20T13:51:03;7.40;;;1.90;;
32094;SDS011;18608;53.688;10.748;2023-07-20T13:53:29;3.27;;;2.27;;
32094;SDS011;18608;53.688;10.748;2023-07-20T13:55:55;2.80;;;1.23;;
32094;SDS011;18608;53.688;10.748;2023-07-20T13:58:22;4.67;;;1.07;;
32094;SDS011;18608;53.688;10.748;2023-07-20T14:00:48;3.20;;;1.40;;
32094;SDS011;18608;53.688;10.748;2023-07-20T14:03:14;1.13;;;1.03;;
32094;SDS011;18608;53.688;10.748;2023-07-20T14:05:40;7.87;;;3.40;;
32094;SDS011;18608;53.688;10.748;2023-07-20T14:08:06;9.03;;;2.10;;
32094;SDS011;18608;53.688;10.748;2023-07-20T14:10:32;6.10;;;1.50;;
32094;SDS011;18608;53.688;10.748;2023-07-20T14:12:58;3.03;;;1.40;;
32094;SDS011;18608;53.688;10.748;2023-07-20T14:15:24;5.70;;;1.13;;
32094;SDS011;18608;53.688;10.748;2023-07-20T14:17:50;1.50;;;1.37;;
32094;SDS011;18608;53.688;10.748;2023-07-20T14:20:16;4.03;;;1.50;;
32094;SDS011;18608;53.688;10.748;2023-07-20T14:22:42;3.07;;;1.33;;
32094;SDS011;18608;53.688;10.748;2023-07-20T14:25:09;2.77;;;1.20;;
32094;SDS011;18608;53.688;10.748;2023-07-20T14:27:35;2.37;;;1.33;;
32094;SDS011;18608;53.688;10.748;2023-07-20T14:30:01;1.00;;;0.90;;
32094;SDS011;18608;53.688;10.748;2023-07-20T14:32:27;3.93;;;1.37;;
32094;SDS011;18608;53.688;10.748;2023-07-20T14:34:53;0.93;;;0.90;;
32094;SDS011;18608;53.688;10.748;2023-07-20T14:37:19;2.20;;;0.80;;
32094;SDS011;18608;53.688;10.748;2023-07-20T14:39:46;2.17;;;0.80;;
32094;SDS011;18608;53.688;10.748;2023-07-20T14:42:13;0.80;;;0.80;;
32094;SDS011;18608;53.688;10.748;2023-07-20T14:44:39;1.33;;;1.20;;
32094;SDS011;18608;53.688;10.748;2023-07-20T14:47:05;1.03;;;0.97;;
32094;SDS011;18608;53.688;10.748;2023-07-20T14:49:31;6.63;;;1.97;;
32094;SDS011;18608;53.688;10.748;2023-07-20T14:51:57;0.90;;;0.90;;